sensor_id;sensor_type;location;lat;lon;timestamp;temperature;humidity
26691;DHT22;14307;51.718;8.938;2023-12-20T00:01:58;7.10;99.90
26691;DHT22;14307;51.718;8.938;2023-12-20T00:04:25;7.10;99.90
26691;DHT22;14307;51.718;8.938;2023-12-20T00:06:52;7.10;99.90
26691;DHT22;14307;51.718;8.938;2023-12-20T00:09:19;7.00;99.90
26691;DHT22;14307;51.718;8.938;2023-12-20T00:11:45;7.00;99.90
26691;DHT22;14307;51.718;8.938;2023-12-20T00:14:12;7.00;99.90
26691;DHT22;14307;51.718;8.938;2023-12-20T00:16:39;7.00;99.90
26691;DHT22;14307;51.718;8.938;2023-12-20T00:19:06;7.00;99.90
26691;DHT22;14307;51.718;8.938;2023-12-20T00:21:34;7.00;99.90
26691;DHT22;14307;51.718;8.938;2023-12-20T00:24:01;6.90;99.90
26691;DHT22;14307;51.718;8.938;2023-12-20T00:26:28;6.80;99.90
26691;DHT22;14307;51.718;8.938;2023-12-20T00:28:55;6.80;99.90
26691;DHT22;14307;51.718;8.938;2023-12-20T00:31:22;6.70;99.90
26691;DHT22;14307;51.718;8.938;2023-12-20T00:33:49;6.70;99.90
26691;DHT22;14307;51.718;8.938;2023-12-20T00:36:15;6.70;99.90
26691;DHT22;14307;51.718;8.938;2023-12-20T00:38:42;6.60;99.90
26691;DHT22;14307;51.718;8.938;2023-12-20T00:41:09;6.60;99.90
26691;DHT22;14307;51.718;8.938;2023-12-20T00:43:36;6.50;99.90
26691;DHT22;14307;51.718;8.938;2023-12-20T00:46:03;6.60;99.90
26691;DHT22;14307;51.718;8.938;2023-12-20T00:48:30;6.50;99.90
26691;DHT22;14307;51.718;8.938;2023-12-20T00:50:57;6.50;99.90
26691;DHT22;14307;51.718;8.938;2023-12-20T00:53:24;6.50;99.90
26691;DHT22;14307;51.718;8.938;2023-12-20T00:55:51;6.50;99.90
26691;DHT22;14307;51.718;8.938;2023-12-20T00:58:18;6.50;99.90
26691;DHT22;14307;51.718;8.938;2023-12-20T01:00:44;6.50;99.90
26691;DHT22;14307;51.718;8.938;2023-12-20T01:03:12;6.50;99.90
26691;DHT22;14307;51.718;8.938;2023-12-20T01:05:39;6.50;99.90
26691;DHT22;14307;51.718;8.938;2023-12-20T01:08:06;6.50;99.90
26691;DHT22;14307;51.718;8.938;2023-12-20T01:10:33;6.50;99.90
26691;DHT22;14307;51.718;8.938;2023-12-20T01:12:59;6.50;99.90
26691;DHT22;14307;51.718;8.938;2023-12-20T01:15:26;6.50;99.90
26691;DHT22;14307;51.718;8.938;2023-12-20T01:17:53;6.50;99.90
26691;DHT22;14307;51.718;8.938;2023-12-20T01:20:20;6.40;99.90
26691;DHT22;14307;51.718;8.938;2023-12-20T01:22:47;6.40;99.90
26691;DHT22;14307;51.718;8.938;2023-12-20T01:25:13;6.40;99.90
26691;DHT22;14307;51.718;8.938;2023-12-20T01:27:40;6.40;99.90
26691;DHT22;14307;51.718;8.938;2023-12-20T01:30:08;6.30;99.90
26691;DHT22;14307;51.718;8.938;2023-12-20T01:32:35;6.30;99.90
26691;DHT22;14307;51.718;8.938;2023-12-20T01:35:02;6.30;99.90
26691;DHT22;14307;51.718;8.938;2023-12-20T01:37:29;6.30;99.90
26691;DHT22;14307;51.718;8.938;2023-12-20T01:39:56;6.30;99.90
26691;DHT22;14307;51.718;8.938;2023-12-20T01:42:23;6.30;99.90
26691;DHT22;14307;51.718;8.938;2023-12-20T01:44:50;6.30;99.90
26691;DHT22;14307;51.718;8.938;2023-12-20T01:47:17;6.20;99.90
26691;DHT22;14307;51.718;8.938;2023-12-20T01:49:44;6.20;99.90
26691;DHT22;14307;51.718;8.938;2023-12-20T01:52:11;6.10;99.90
26691;DHT22;14307;51.718;8.938;2023-12-20T01:54:40;6.20;99.90
26691;DHT22;14307;51.718;8.938;2023-12-20T01:57:08;6.20;99.90
26691;DHT22;14307;51.718;8.938;2023-12-20T01:59:35;6.20;99.90
26691;DHT22;14307;51.718;8.938;2023-12-20T02:02:03;6.30;99.90
26691;DHT22;14307;51.718;8.938;2023-12-20T02:04:30;6.20;99.90
26691;DHT22;14307;51.718;8.938;2023-12-20T02:06:58;6.20;99.90
26691;DHT22;14307;51.718;8.938;2023-12-20T02:09:26;6.30;99.90
26691;DHT22;14307;51.718;8.938;2023-12-20T02:11:54;6.20;99.90
26691;DHT22;14307;51.718;8.938;2023-12-20T02:14:21;6.20;99.90
26691;DHT22;14307;51.718;8.938;2023-12-20T02:16:48;6.20;99.90
26691;DHT22;14307;51.718;8.938;2023-12-20T02:19:15;6.20;99.90
26691;DHT22;14307;51.718;8.938;2023-12-20T02:21:44;6.20;99.90
26691;DHT22;14307;51.718;8.938;2023-12-20T02:24:11;6.20;99.90
26691;DHT22;14307;51.718;8.938;2023-12-20T02:26:38;6.10;99.90
26691;DHT22;14307;51.718;8.938;2023-12-20T02:29:05;6.10;99.90
26691;DHT22;14307;51.718;8.938;2023-12-20T02:31:32;6.10;99.90
26691;DHT22;14307;51.718;8.938;2023-12-20T02:34:00;6.10;99.90
26691;DHT22;14307;51.718;8.938;2023-12-20T02:36:27;6.10;99.90
26691;DHT22;14307;51.718;8.938;2023-12-20T02:38:53;6.10;99.90
26691;DHT22;14307;51.718;8.938;2023-12-20T02:41:20;6.00;99.90
26691;DHT22;14307;51.718;8.938;2023-12-20T02:43:47;6.00;99.90
26691;DHT22;14307;51.718;8.938;2023-12-20T02:46:16;6.00;99.90
26691;DHT22;14307;51.718;8.938;2023-12-20T02:48:43;6.00;99.90
26691;DHT22;14307;51.718;8.938;2023-12-20T02:51:10;6.00;99.90
26691;DHT22;14307;51.718;8.938;2023-12-20T02:53:37;6.00;99.90
26691;DHT22;14307;51.718;8.938;2023-12-20T02:56:04;6.00;99.90
26691;DHT22;14307;51.718;8.938;2023-12-20T02:58:31;6.00;99.90
26691;DHT22;14307;51.718;8.938;2023-12-20T03:00:58;6.00;99.90
26691;DHT22;14307;51.718;8.938;2023-12-20T03:03:25;5.90;99.90
26691;DHT22;14307;51.718;8.938;2023-12-20T03:05:52;5.90;99.90
26691;DHT22;14307;51.718;8.938;2023-12-20T03:08:18;5.80;99.90
26691;DHT22;14307;51.718;8.938;2023-12-20T03:10:45;5.80;99.90
26691;DHT22;14307;51.718;8.938;2023-12-20T03:13:12;5.80;99.90
26691;DHT22;14307;51.718;8.938;2023-12-20T03:15:39;5.80;99.90
26691;DHT22;14307;51.718;8.938;2023-12-20T03:18:05;5.80;99.90
26691;DHT22;14307;51.718;8.938;2023-12-20T03:20:33;5.80;99.90
26691;DHT22;14307;51.718;8.938;2023-12-20T03:23:01;5.80;99.90
26691;DHT22;14307;51.718;8.938;2023-12-20T03:25:27;5.80;99.90
26691;DHT22;14307;51.718;8.938;2023-12-20T03:27:54;5.70;99.90
26691;DHT22;14307;51.718;8.938;2023-12-20T03:30:21;5.80;99.90
26691;DHT22;14307;51.718;8.938;2023-12-20T03:32:48;5.70;99.90
26691;DHT22;14307;51.718;8.938;2023-12-20T03:35:15;5.70;99.90
26691;DHT22;14307;51.718;8.938;2023-12-20T03:37:42;5.80;99.90
26691;DHT22;14307;51.718;8.938;2023-12-20T03:40:10;5.80;99.90
26691;DHT22;14307;51.718;8.938;2023-12-20T03:42:36;5.80;99.90
26691;DHT22;14307;51.718;8.938;2023-12-20T03:45:03;5.80;99.90
26691;DHT22;14307;51.718;8.938;2023-12-20T03:47:30;5.70;99.90
26691;DHT22;14307;51.718;8.938;2023-12-20T03:49:57;5.80;99.90
26691;DHT22;14307;51.718;8.938;2023-12-20T03:52:24;5.70;99.90
26691;DHT22;14307;51.718;8.938;2023-12-20T03:54:51;5.80;99.90
26691;DHT22;14307;51.718;8.938;2023-12-20T03:57:17;5.70;99.90
26691;DHT22;14307;51.718;8.938;2023-12-20T03:59:44;5.70;99.90
26691;DHT22;14307;51.718;8.938;2023-12-20T04:02:11;5.70;99.90
26691;DHT22;14307;51.718;8.938;2023-12-20T04:04:38;5.70;99.90
26691;DHT22;14307;51.718;8.938;2023-12-20T04:07:05;5.70;99.90
26691;DHT22;14307;51.718;8.938;2023-12-20T04:09:31;5.70;99.90
26691;DHT22;14307;51.718;8.938;2023-12-20T04:11:58;5.70;99.90
26691;DHT22;14307;51.718;8.938;2023-12-20T04:14:25;5.70;99.90
26691;DHT22;14307;51.718;8.938;2023-12-20T04:16:52;5.70;99.90
26691;DHT22;14307;51.718;8.938;2023-12-20T04:19:19;5.70;99.90
26691;DHT22;14307;51.718;8.938;2023-12-20T04:21:46;5.70;99.90
26691;DHT22;14307;51.718;8.938;2023-12-20T04:24:13;5.60;99.90
26691;DHT22;14307;51.718;8.938;2023-12-20T04:26:39;5.60;99.90
26691;DHT22;14307;51.718;8.938;2023-12-20T04:29:06;5.60;99.90
26691;DHT22;14307;51.718;8.938;2023-12-20T04:31:33;5.60;99.90
26691;DHT22;14307;51.718;8.938;2023-12-20T04:34:00;5.60;99.90
26691;DHT22;14307;51.718;8.938;2023-12-20T04:36:27;5.60;99.90
26691;DHT22;14307;51.718;8.938;2023-12-20T04:38:54;5.60;99.90
26691;DHT22;14307;51.718;8.938;2023-12-20T04:41:21;5.60;99.90
26691;DHT22;14307;51.718;8.938;2023-12-20T04:43:50;5.60;99.90
26691;DHT22;14307;51.718;8.938;2023-12-20T04:46:17;5.60;99.90
26691;DHT22;14307;51.718;8.938;2023-12-20T04:48:44;5.60;99.90
26691;DHT22;14307;51.718;8.938;2023-12-20T04:51:11;5.60;99.90
26691;DHT22;14307;51.718;8.938;2023-12-20T04:53:38;5.60;99.90
26691;DHT22;14307;51.718;8.938;2023-12-20T04:56:05;5.50;99.90
26691;DHT22;14307;51.718;8.938;2023-12-20T04:58:32;5.50;99.90
26691;DHT22;14307;51.718;8.938;2023-12-20T05:00:59;5.50;99.90
26691;DHT22;14307;51.718;8.938;2023-12-20T05:03:26;5.50;99.90
26691;DHT22;14307;51.718;8.938;2023-12-20T05:05:53;5.50;99.90
26691;DHT22;14307;51.718;8.938;2023-12-20T05:08:20;5.50;99.90
26691;DHT22;14307;51.718;8.938;2023-12-20T05:10:47;5.50;99.90
26691;DHT22;14307;51.718;8.938;2023-12-20T05:13:14;5.60;99.90
26691;DHT22;14307;51.718;8.938;2023-12-20T05:15:41;5.50;99.90
26691;DHT22;14307;51.718;8.938;2023-12-20T05:18:08;5.50;99.90
26691;DHT22;14307;51.718;8.938;2023-12-20T05:20:34;5.50;99.90
26691;DHT22;14307;51.718;8.938;2023-12-20T05:23:02;5.50;99.90
26691;DHT22;14307;51.718;8.938;2023-12-20T05:25:28;5.50;99.90
26691;DHT22;14307;51.718;8.938;2023-12-20T05:27:55;5.50;99.90
26691;DHT22;14307;51.718;8.938;2023-12-20T05:30:22;5.50;99.90
26691;DHT22;14307;51.718;8.938;2023-12-20T05:32:49;5.50;99.90
26691;DHT22;14307;51.718;8.938;2023-12-20T05:35:16;5.50;99.90
26691;DHT22;14307;51.718;8.938;2023-12-20T05:37:44;5.50;99.90
26691;DHT22;14307;51.718;8.938;2023-12-20T05:40:12;5.60;99.90
26691;DHT22;14307;51.718;8.938;2023-12-20T05:42:38;5.50;99.90
26691;DHT22;14307;51.718;8.938;2023-12-20T05:45:06;5.50;99.90
26691;DHT22;14307;51.718;8.938;2023-12-20T05:47:33;5.50;99.90
26691;DHT22;14307;51.718;8.938;2023-12-20T05:50:00;5.50;99.90
26691;DHT22;14307;51.718;8.938;2023-12-20T05:52:27;5.50;99.90
26691;DHT22;14307;51.718;8.938;2023-12-20T05:54:53;5.50;99.90
26691;DHT22;14307;51.718;8.938;2023-12-20T05:57:20;5.50;99.90
26691;DHT22;14307;51.718;8.938;2023-12-20T05:59:47;5.50;99.90
26691;DHT22;14307;51.718;8.938;2023-12-20T06:02:14;5.50;99.90
26691;DHT22;14307;51.718;8.938;2023-12-20T06:04:42;5.50;99.90
26691;DHT22;14307;51.718;8.938;2023-12-20T06:07:13;5.50;99.90
26691;DHT22;14307;51.718;8.938;2023-12-20T06:09:40;5.50;99.90
26691;DHT22;14307;51.718;8.938;2023-12-20T06:12:07;5.50;99.90
26691;DHT22;14307;51.718;8.938;2023-12-20T06:14:35;5.40;99.90
26691;DHT22;14307;51.718;8.938;2023-12-20T06:17:01;5.50;99.90
26691;DHT22;14307;51.718;8.938;2023-12-20T06:19:28;5.40;99.90
26691;DHT22;14307;51.718;8.938;2023-12-20T06:21:56;5.40;99.90
26691;DHT22;14307;51.718;8.938;2023-12-20T06:24:23;5.40;99.90
26691;DHT22;14307;51.718;8.938;2023-12-20T06:26:54;5.40;99.90
26691;DHT22;14307;51.718;8.938;2023-12-20T06:29:22;5.40;99.90
26691;DHT22;14307;51.718;8.938;2023-12-20T06:31:49;5.40;99.90
26691;DHT22;14307;51.718;8.938;2023-12-20T06:34:15;5.40;99.90
26691;DHT22;14307;51.718;8.938;2023-12-20T06:36:42;5.40;99.90
26691;DHT22;14307;51.718;8.938;2023-12-20T06:39:09;5.40;99.90
26691;DHT22;14307;51.718;8.938;2023-12-20T06:41:39;5.40;99.90
26691;DHT22;14307;51.718;8.938;2023-12-20T06:44:06;5.40;99.90
26691;DHT22;14307;51.718;8.938;2023-12-20T06:46:33;5.40;99.90
26691;DHT22;14307;51.718;8.938;2023-12-20T06:48:59;5.40;99.90
26691;DHT22;14307;51.718;8.938;2023-12-20T06:51:27;5.40;99.90
26691;DHT22;14307;51.718;8.938;2023-12-20T06:53:54;5.30;99.90
26691;DHT22;14307;51.718;8.938;2023-12-20T06:56:20;5.40;99.90
26691;DHT22;14307;51.718;8.938;2023-12-20T06:58:47;5.40;99.90
26691;DHT22;14307;51.718;8.938;2023-12-20T07:01:14;5.40;99.90
26691;DHT22;14307;51.718;8.938;2023-12-20T07:03:42;5.40;99.90
26691;DHT22;14307;51.718;8.938;2023-12-20T07:06:09;5.40;99.90
26691;DHT22;14307;51.718;8.938;2023-12-20T07:08:36;5.40;99.90
26691;DHT22;14307;51.718;8.938;2023-12-20T07:11:03;5.40;99.90
26691;DHT22;14307;51.718;8.938;2023-12-20T07:13:30;5.40;99.90
26691;DHT22;14307;51.718;8.938;2023-12-20T07:15:57;5.40;99.90
26691;DHT22;14307;51.718;8.938;2023-12-20T07:18:24;5.40;99.90
26691;DHT22;14307;51.718;8.938;2023-12-20T07:20:51;5.40;99.90
26691;DHT22;14307;51.718;8.938;2023-12-20T07:23:18;5.40;99.90
26691;DHT22;14307;51.718;8.938;2023-12-20T07:25:47;5.40;99.90
26691;DHT22;14307;51.718;8.938;2023-12-20T07:28:13;5.40;99.90
26691;DHT22;14307;51.718;8.938;2023-12-20T07:30:40;5.40;99.90
26691;DHT22;14307;51.718;8.938;2023-12-20T07:33:07;5.40;99.90
26691;DHT22;14307;51.718;8.938;2023-12-20T07:35:36;5.40;99.90
26691;DHT22;14307;51.718;8.938;2023-12-20T07:38:03;5.40;99.90
26691;DHT22;14307;51.718;8.938;2023-12-20T07:40:30;5.40;99.90
26691;DHT22;14307;51.718;8.938;2023-12-20T07:42:57;5.40;99.90
26691;DHT22;14307;51.718;8.938;2023-12-20T07:45:24;5.40;99.90
26691;DHT22;14307;51.718;8.938;2023-12-20T07:47:51;5.40;99.90
26691;DHT22;14307;51.718;8.938;2023-12-20T07:50:18;5.40;99.90
26691;DHT22;14307;51.718;8.938;2023-12-20T07:52:45;5.40;99.90
26691;DHT22;14307;51.718;8.938;2023-12-20T07:55:12;5.40;99.90
26691;DHT22;14307;51.718;8.938;2023-12-20T07:57:38;5.30;99.90
26691;DHT22;14307;51.718;8.938;2023-12-20T08:00:05;5.40;99.90
26691;DHT22;14307;51.718;8.938;2023-12-20T08:02:32;5.40;99.90
26691;DHT22;14307;51.718;8.938;2023-12-20T08:04:59;5.40;99.90
26691;DHT22;14307;51.718;8.938;2023-12-20T08:07:26;5.40;99.90
26691;DHT22;14307;51.718;8.938;2023-12-20T08:09:53;5.40;99.90
26691;DHT22;14307;51.718;8.938;2023-12-20T08:12:21;5.40;99.90
26691;DHT22;14307;51.718;8.938;2023-12-20T08:14:48;5.40;99.90
26691;DHT22;14307;51.718;8.938;2023-12-20T08:17:15;5.40;99.90
26691;DHT22;14307;51.718;8.938;2023-12-20T08:19:42;5.40;99.90
26691;DHT22;14307;51.718;8.938;2023-12-20T08:22:09;5.40;99.90
26691;DHT22;14307;51.718;8.938;2023-12-20T08:24:36;5.40;99.90
26691;DHT22;14307;51.718;8.938;2023-12-20T08:27:04;5.40;99.90
26691;DHT22;14307;51.718;8.938;2023-12-20T08:29:31;5.40;99.90
26691;DHT22;14307;51.718;8.938;2023-12-20T08:31:59;5.40;99.90
26691;DHT22;14307;51.718;8.938;2023-12-20T08:34:26;5.40;99.90
26691;DHT22;14307;51.718;8.938;2023-12-20T08:36:54;5.50;99.90
26691;DHT22;14307;51.718;8.938;2023-12-20T08:39:20;5.50;99.90
26691;DHT22;14307;51.718;8.938;2023-12-20T08:41:47;5.50;99.90
26691;DHT22;14307;51.718;8.938;2023-12-20T08:44:15;5.40;99.90
26691;DHT22;14307;51.718;8.938;2023-12-20T08:46:42;5.40;99.90
26691;DHT22;14307;51.718;8.938;2023-12-20T08:49:09;5.40;99.90
26691;DHT22;14307;51.718;8.938;2023-12-20T08:51:37;5.40;99.90
26691;DHT22;14307;51.718;8.938;2023-12-20T08:54:07;5.40;99.90
26691;DHT22;14307;51.718;8.938;2023-12-20T08:56:37;5.40;99.90
26691;DHT22;14307;51.718;8.938;2023-12-20T08:59:03;5.40;99.90
26691;DHT22;14307;51.718;8.938;2023-12-20T09:01:30;5.40;99.90
26691;DHT22;14307;51.718;8.938;2023-12-20T09:03:57;5.40;99.90
26691;DHT22;14307;51.718;8.938;2023-12-20T09:06:24;5.40;99.90
26691;DHT22;14307;51.718;8.938;2023-12-20T09:08:52;5.40;99.90
26691;DHT22;14307;51.718;8.938;2023-12-20T09:11:18;5.40;99.90
26691;DHT22;14307;51.718;8.938;2023-12-20T09:13:46;5.40;99.90
26691;DHT22;14307;51.718;8.938;2023-12-20T09:16:13;5.40;99.90
26691;DHT22;14307;51.718;8.938;2023-12-20T09:18:42;5.40;99.90
26691;DHT22;14307;51.718;8.938;2023-12-20T09:21:09;5.40;99.90
26691;DHT22;14307;51.718;8.938;2023-12-20T09:23:36;5.50;99.90
26691;DHT22;14307;51.718;8.938;2023-12-20T09:26:03;5.50;99.90
26691;DHT22;14307;51.718;8.938;2023-12-20T09:28:30;5.50;99.90
26691;DHT22;14307;51.718;8.938;2023-12-20T09:30:59;5.60;99.90
26691;DHT22;14307;51.718;8.938;2023-12-20T09:33:26;5.60;99.90
26691;DHT22;14307;51.718;8.938;2023-12-20T09:35:53;5.50;99.90
26691;DHT22;14307;51.718;8.938;2023-12-20T09:38:20;5.50;99.90
26691;DHT22;14307;51.718;8.938;2023-12-20T09:40:47;5.50;99.90
26691;DHT22;14307;51.718;8.938;2023-12-20T09:43:15;5.50;99.90
26691;DHT22;14307;51.718;8.938;2023-12-20T09:45:46;5.60;99.90
26691;DHT22;14307;51.718;8.938;2023-12-20T09:48:17;5.60;99.90
26691;DHT22;14307;51.718;8.938;2023-12-20T09:50:50;5.60;99.90
26691;DHT22;14307;51.718;8.938;2023-12-20T09:53:21;5.60;99.90
26691;DHT22;14307;51.718;8.938;2023-12-20T09:55:51;5.60;99.90
26691;DHT22;14307;51.718;8.938;2023-12-20T09:58:19;5.60;99.90
26691;DHT22;14307;51.718;8.938;2023-12-20T10:00:46;5.50;99.90
26691;DHT22;14307;51.718;8.938;2023-12-20T10:03:14;5.60;99.90
26691;DHT22;14307;51.718;8.938;2023-12-20T10:05:44;5.60;99.90
26691;DHT22;14307;51.718;8.938;2023-12-20T10:08:11;5.70;99.90
26691;DHT22;14307;51.718;8.938;2023-12-20T10:10:38;5.70;99.90
26691;DHT22;14307;51.718;8.938;2023-12-20T10:13:15;5.70;99.90
26691;DHT22;14307;51.718;8.938;2023-12-20T10:15:42;5.60;99.90
26691;DHT22;14307;51.718;8.938;2023-12-20T10:18:09;5.70;99.90
26691;DHT22;14307;51.718;8.938;2023-12-20T10:20:37;5.70;99.90
26691;DHT22;14307;51.718;8.938;2023-12-20T10:23:06;5.70;99.90
26691;DHT22;14307;51.718;8.938;2023-12-20T10:25:34;5.70;99.90
26691;DHT22;14307;51.718;8.938;2023-12-20T10:28:14;5.70;99.90
26691;DHT22;14307;51.718;8.938;2023-12-20T10:30:41;5.70;99.90
26691;DHT22;14307;51.718;8.938;2023-12-20T10:33:09;5.70;99.90
26691;DHT22;14307;51.718;8.938;2023-12-20T10:35:38;5.70;99.90
26691;DHT22;14307;51.718;8.938;2023-12-20T10:38:11;5.70;99.90
26691;DHT22;14307;51.718;8.938;2023-12-20T10:40:39;5.70;99.90
26691;DHT22;14307;51.718;8.938;2023-12-20T10:43:08;5.70;99.90
26691;DHT22;14307;51.718;8.938;2023-12-20T10:45:36;5.70;99.90
26691;DHT22;14307;51.718;8.938;2023-12-20T10:48:04;5.80;99.90
26691;DHT22;14307;51.718;8.938;2023-12-20T10:50:31;5.70;99.90
26691;DHT22;14307;51.718;8.938;2023-12-20T10:52:58;5.70;99.90
26691;DHT22;14307;51.718;8.938;2023-12-20T10:55:27;5.80;99.90
26691;DHT22;14307;51.718;8.938;2023-12-20T10:58:00;5.80;99.90
26691;DHT22;14307;51.718;8.938;2023-12-20T11:00:29;5.80;99.90
26691;DHT22;14307;51.718;8.938;2023-12-20T11:03:00;5.80;99.90
26691;DHT22;14307;51.718;8.938;2023-12-20T11:05:51;5.80;99.90
26691;DHT22;14307;51.718;8.938;2023-12-20T11:11:32;5.80;99.90
26691;DHT22;14307;51.718;8.938;2023-12-20T11:14:14;5.80;99.90
26691;DHT22;14307;51.718;8.938;2023-12-20T11:16:42;5.80;99.90
26691;DHT22;14307;51.718;8.938;2023-12-20T11:19:20;5.90;99.90
26691;DHT22;14307;51.718;8.938;2023-12-20T11:21:47;5.90;99.90
26691;DHT22;14307;51.718;8.938;2023-12-20T11:24:15;5.90;99.90
26691;DHT22;14307;51.718;8.938;2023-12-20T11:26:47;5.90;99.90
26691;DHT22;14307;51.718;8.938;2023-12-20T11:29:31;6.00;99.90
26691;DHT22;14307;51.718;8.938;2023-12-20T11:32:00;6.00;99.90
26691;DHT22;14307;51.718;8.938;2023-12-20T11:34:31;5.90;99.90
26691;DHT22;14307;51.718;8.938;2023-12-20T11:36:59;5.90;99.90
26691;DHT22;14307;51.718;8.938;2023-12-20T11:39:28;6.00;99.90
26691;DHT22;14307;51.718;8.938;2023-12-20T11:41:57;6.00;99.90
26691;DHT22;14307;51.718;8.938;2023-12-20T11:44:25;6.00;99.90
26691;DHT22;14307;51.718;8.938;2023-12-20T11:46:54;6.00;99.90
26691;DHT22;14307;51.718;8.938;2023-12-20T11:49:23;6.00;99.90
26691;DHT22;14307;51.718;8.938;2023-12-20T11:51:51;6.00;99.90
26691;DHT22;14307;51.718;8.938;2023-12-20T11:54:18;6.00;99.90
26691;DHT22;14307;51.718;8.938;2023-12-20T11:56:46;6.00;99.90
26691;DHT22;14307;51.718;8.938;2023-12-20T11:59:14;6.00;99.90
26691;DHT22;14307;51.718;8.938;2023-12-20T12:01:50;6.00;99.90
26691;DHT22;14307;51.718;8.938;2023-12-20T12:04:18;6.00;99.90
26691;DHT22;14307;51.718;8.938;2023-12-20T12:06:46;6.00;99.90
26691;DHT22;14307;51.718;8.938;2023-12-20T12:09:13;6.00;99.90
26691;DHT22;14307;51.718;8.938;2023-12-20T12:11:40;6.00;99.90
26691;DHT22;14307;51.718;8.938;2023-12-20T12:14:07;6.00;99.90
26691;DHT22;14307;51.718;8.938;2023-12-20T12:16:34;6.00;99.90
26691;DHT22;14307;51.718;8.938;2023-12-20T12:19:01;6.00;99.90
26691;DHT22;14307;51.718;8.938;2023-12-20T12:21:28;6.00;99.90
26691;DHT22;14307;51.718;8.938;2023-12-20T12:24:09;6.10;99.90
26691;DHT22;14307;51.718;8.938;2023-12-20T12:26:36;6.00;99.90
26691;DHT22;14307;51.718;8.938;2023-12-20T12:29:07;5.90;99.90
26691;DHT22;14307;51.718;8.938;2023-12-20T12:31:34;6.00;99.90
26691;DHT22;14307;51.718;8.938;2023-12-20T12:34:01;6.00;99.90
26691;DHT22;14307;51.718;8.938;2023-12-20T12:36:29;6.00;99.90
26691;DHT22;14307;51.718;8.938;2023-12-20T12:38:57;6.00;99.90
26691;DHT22;14307;51.718;8.938;2023-12-20T12:41:24;6.00;99.90
26691;DHT22;14307;51.718;8.938;2023-12-20T12:43:52;6.10;99.90
26691;DHT22;14307;51.718;8.938;2023-12-20T12:46:19;6.10;99.90
26691;DHT22;14307;51.718;8.938;2023-12-20T12:48:46;6.10;99.90
26691;DHT22;14307;51.718;8.938;2023-12-20T12:51:13;6.10;99.90
26691;DHT22;14307;51.718;8.938;2023-12-20T12:53:40;6.10;99.90
26691;DHT22;14307;51.718;8.938;2023-12-20T12:56:07;6.10;99.90
26691;DHT22;14307;51.718;8.938;2023-12-20T12:58:34;6.10;99.90
26691;DHT22;14307;51.718;8.938;2023-12-20T13:01:01;6.10;99.90
26691;DHT22;14307;51.718;8.938;2023-12-20T13:03:30;6.20;99.90
26691;DHT22;14307;51.718;8.938;2023-12-20T13:05:57;6.20;99.90
26691;DHT22;14307;51.718;8.938;2023-12-20T13:08:24;6.20;99.90
26691;DHT22;14307;51.718;8.938;2023-12-20T13:10:51;6.20;99.90
26691;DHT22;14307;51.718;8.938;2023-12-20T13:13:18;6.20;99.90
26691;DHT22;14307;51.718;8.938;2023-12-20T13:15:45;6.20;99.90
26691;DHT22;14307;51.718;8.938;2023-12-20T13:18:17;6.20;99.90
26691;DHT22;14307;51.718;8.938;2023-12-20T13:20:45;6.20;99.90
26691;DHT22;14307;51.718;8.938;2023-12-20T13:23:12;6.20;99.90
26691;DHT22;14307;51.718;8.938;2023-12-20T13:25:40;6.30;99.90
26691;DHT22;14307;51.718;8.938;2023-12-20T13:28:07;6.30;99.90
26691;DHT22;14307;51.718;8.938;2023-12-20T13:30:35;6.30;99.90
26691;DHT22;14307;51.718;8.938;2023-12-20T13:33:02;6.30;99.90
26691;DHT22;14307;51.718;8.938;2023-12-20T13:35:29;6.30;99.90
26691;DHT22;14307;51.718;8.938;2023-12-20T13:37:56;6.30;99.90
26691;DHT22;14307;51.718;8.938;2023-12-20T13:40:23;6.30;99.90
26691;DHT22;14307;51.718;8.938;2023-12-20T13:42:50;6.30;99.90
26691;DHT22;14307;51.718;8.938;2023-12-20T13:45:18;6.30;99.90
26691;DHT22;14307;51.718;8.938;2023-12-20T13:47:44;6.30;99.90
26691;DHT22;14307;51.718;8.938;2023-12-20T13:50:12;6.30;99.90
26691;DHT22;14307;51.718;8.938;2023-12-20T13:52:39;6.30;99.90
26691;DHT22;14307;51.718;8.938;2023-12-20T13:55:07;6.30;99.90
26691;DHT22;14307;51.718;8.938;2023-12-20T13:57:35;6.30;99.90
26691;DHT22;14307;51.718;8.938;2023-12-20T14:00:20;6.30;99.90
26691;DHT22;14307;51.718;8.938;2023-12-20T14:02:47;6.40;99.90
26691;DHT22;14307;51.718;8.938;2023-12-20T14:05:15;6.30;99.90
26691;DHT22;14307;51.718;8.938;2023-12-20T14:07:46;6.30;99.90
26691;DHT22;14307;51.718;8.938;2023-12-20T14:10:15;6.30;99.90
26691;DHT22;14307;51.718;8.938;2023-12-20T14:12:42;6.30;99.90
26691;DHT22;14307;51.718;8.938;2023-12-20T14:15:11;6.30;99.90
26691;DHT22;14307;51.718;8.938;2023-12-20T14:17:40;6.30;99.90
26691;DHT22;14307;51.718;8.938;2023-12-20T14:20:11;6.30;99.90
26691;DHT22;14307;51.718;8.938;2023-12-20T14:22:42;6.30;99.90
26691;DHT22;14307;51.718;8.938;2023-12-20T14:25:14;6.30;99.90
26691;DHT22;14307;51.718;8.938;2023-12-20T14:27:41;6.30;99.90
26691;DHT22;14307;51.718;8.938;2023-12-20T14:30:11;6.30;99.90
26691;DHT22;14307;51.718;8.938;2023-12-20T14:32:40;6.30;99.90
26691;DHT22;14307;51.718;8.938;2023-12-20T14:35:08;6.30;99.90
26691;DHT22;14307;51.718;8.938;2023-12-20T14:37:35;6.30;99.90
26691;DHT22;14307;51.718;8.938;2023-12-20T14:40:09;6.30;99.90
26691;DHT22;14307;51.718;8.938;2023-12-20T14:42:44;6.30;99.90
26691;DHT22;14307;51.718;8.938;2023-12-20T14:45:11;6.30;99.90
26691;DHT22;14307;51.718;8.938;2023-12-20T14:47:39;6.30;99.90
26691;DHT22;14307;51.718;8.938;2023-12-20T14:50:07;6.30;99.90
26691;DHT22;14307;51.718;8.938;2023-12-20T14:52:34;6.30;99.90
26691;DHT22;14307;51.718;8.938;2023-12-20T14:55:02;6.30;99.90
26691;DHT22;14307;51.718;8.938;2023-12-20T14:57:32;6.30;99.90
26691;DHT22;14307;51.718;8.938;2023-12-20T14:59:59;6.30;99.90
26691;DHT22;14307;51.718;8.938;2023-12-20T15:02:26;6.30;99.90
26691;DHT22;14307;51.718;8.938;2023-12-20T15:04:52;6.20;99.90
26691;DHT22;14307;51.718;8.938;2023-12-20T15:07:19;6.30;99.90
26691;DHT22;14307;51.718;8.938;2023-12-20T15:09:46;6.30;99.90
26691;DHT22;14307;51.718;8.938;2023-12-20T15:12:14;6.30;99.90
26691;DHT22;14307;51.718;8.938;2023-12-20T15:14:41;6.30;99.90
26691;DHT22;14307;51.718;8.938;2023-12-20T15:17:08;6.30;99.90
26691;DHT22;14307;51.718;8.938;2023-12-20T15:19:35;6.30;99.90
26691;DHT22;14307;51.718;8.938;2023-12-20T15:22:03;6.30;99.90
26691;DHT22;14307;51.718;8.938;2023-12-20T15:24:30;6.40;99.90
26691;DHT22;14307;51.718;8.938;2023-12-20T15:27:05;6.40;99.90
26691;DHT22;14307;51.718;8.938;2023-12-20T15:29:34;6.40;99.90
26691;DHT22;14307;51.718;8.938;2023-12-20T15:32:00;6.40;99.90
26691;DHT22;14307;51.718;8.938;2023-12-20T15:34:27;6.40;99.90
26691;DHT22;14307;51.718;8.938;2023-12-20T15:36:54;6.40;99.90
26691;DHT22;14307;51.718;8.938;2023-12-20T15:39:22;6.40;99.90
26691;DHT22;14307;51.718;8.938;2023-12-20T15:41:49;6.40;99.90
26691;DHT22;14307;51.718;8.938;2023-12-20T15:44:16;6.30;99.90
26691;DHT22;14307;51.718;8.938;2023-12-20T15:46:43;6.30;99.90
26691;DHT22;14307;51.718;8.938;2023-12-20T15:49:10;6.30;99.90
26691;DHT22;14307;51.718;8.938;2023-12-20T15:51:38;6.30;99.90